M I D A S
Marine Information and Data Acquisition System
Tripno 645 of the Zeeleeuw from 2004-02-10 07:25:09 to 2004-02-10 16:58:56
Back to CruiseResearch ActivitiesStationsMapUnderway DataData graphs

EquipmentUnitsComment
TimeDGPSUTC
LatitudeDGPSDM.mWGS84
LongitudeDGPSDM.mWGS84
TemperatureSBE03/SBE38deg celciusITS90
ConductivitySBE21S/mITS90
SalinitySBE21 Practical Salinity Units
ChlorophylAChelsea fluorimeterg/lCalibrated in Aceton
Missing or incorrect values are displayed as -999
Sea surface data collected by the RV Zeeleeuw from 2004-02-10 07:25:09 to 2004-02-10 16:58:56
Time Latitude Longitude Temperature Conductivity Salinity ChlorophylA
2004-02-10 07:26:14 51°13.606 2°56.05 12.893557 0.009547 0.058483 -0.107061
2004-02-10 07:27:15 51°13.639 2°55.948 12.925331 0.009547 0.058494 -0.107061
2004-02-10 07:28:15 51°13.669 2°55.831 12.933406 0.009547 0.05851 -0.107061
2004-02-10 07:29:14 51°13.682 2°55.785 12.999859 0.009547 0.05853 -0.107061
2004-02-10 07:30:15 51°13.687 2°55.769 13.158859 0.009547 0.058564 -0.107061
2004-02-10 07:31:14 51°13.755 2°55.701 12.942199 0.009547 0.058587 -0.073352
2004-02-10 07:32:15 51°13.868 2°55.602 12.924389 0.009547 0.058605 -0.073352
2004-02-10 07:33:14 51°13.993 2°55.512 12.942872 0.009547 0.058619 -0.14077
2004-02-10 07:34:14 51°14.126 2°55.415 12.967672 0.009547 0.058631 -0.073352
2004-02-10 07:35:14 51°14.268 2°55.251 12.962381 0.009443 0.058034 -0.107061
2004-02-10 07:36:14 51°14.398 2°55.011 12.929907 0.009443 0.058039 -0.073352
2004-02-10 07:37:14 51°14.515 2°54.748 12.829426 0.009443 0.058054 -0.107061
2004-02-10 07:38:14 51°14.595 2°54.531 12.877171 0.009443 0.058067 -0.14077
2004-02-10 07:39:14 51°14.7 2°54.285 7.148818 3.34819 31.648856 5.623537
2004-02-10 07:40:14 51°14.823 2°53.984 6.9397 3.321239 32.451961 2.522272
2004-02-10 07:41:14 51°14.929 2°53.655 7.026593 3.365689 32.959135 2.320016
2004-02-10 07:42:14 51°15.044 2°53.327 7.006158 3.400344 33.337626 2.117759
2004-02-10 07:43:14 51°15.158 2°52.994 7.01112 3.402452 33.415563 2.117759
2004-02-10 07:44:14 51°15.261 2°52.646 7.021976 3.431631 33.719804 2.286306
2004-02-10 07:45:14 51°15.358 2°52.294 7.018538 3.435318 33.752569 2.151469
2004-02-10 07:46:14 51°15.405 2°51.917 7.014264 3.427101 33.672033 2.218888
2004-02-10 07:47:14 51°15.43 2°51.531 7.046824 3.447854 33.896909 2.218888
2004-02-10 07:48:14 51°15.457 2°51.146 7.074608 3.449539 33.881139 2.286306
2004-02-10 07:49:14 51°15.486 2°50.762 7.066362 3.459653 33.989836 2.151469
2004-02-10 07:50:14 51°15.514 2°50.378 7.088888 3.449539 33.871981 2.08405
2004-02-10 07:51:14 51°15.544 2°49.995 7.104979 3.450171 33.867226 2.252597
2004-02-10 07:52:14 51°15.572 2°49.611 7.123813 3.459126 33.951545 2.185178
2004-02-10 07:53:14 51°15.601 2°49.228 7.126216 3.4665 34.018607 2.185178
2004-02-10 07:54:14 51°15.631 2°48.849 7.127295 3.464077 33.994692 2.218888
2004-02-10 07:55:14 51°15.662 2°48.467 7.131119 3.466816 34.007865 2.252597
2004-02-10 07:56:14 51°15.692 2°48.079 7.132443 3.460917 33.958568 2.353725
2004-02-10 07:57:14 51°15.723 2°47.691 7.116162 3.471241 34.073649 2.421144
2004-02-10 07:58:14 51°15.752 2°47.299 7.12803 3.469661 34.058085 2.488563
2004-02-10 07:59:15 51°15.784 2°46.903 7.123323 3.469239 34.048475 2.252597
2004-02-10 08:00:14 51°15.813 2°46.523 7.095021 3.453437 33.892849 2.050341
2004-02-10 08:01:14 51°15.842 2°46.138 7.072596 3.474718 34.156008 2.08405
2004-02-10 08:02:14 51°15.871 2°45.753 7.070976 3.473243 34.15417 2.050341
2004-02-10 08:03:14 51°15.9 2°45.37 7.076669 3.48125 34.239149 2.08405
2004-02-10 08:04:14 51°15.943 2°44.99 7.07078 3.481461 34.24061 2.218888
2004-02-10 08:05:14 51°16.036 2°44.643 7.065626 3.480196 34.233527 2.08405
2004-02-10 08:06:14 51°16.177 2°44.34 7.052618 3.478722 34.224981 1.881794
2004-02-10 08:07:14 51°16.341 2°44.06 7.040147 3.476615 34.215413 2.050341
2004-02-10 08:08:14 51°16.51 2°43.788 7.039607 3.478722 34.2452 1.881794
2004-02-10 08:09:14 51°16.682 2°43.527 7.040294 3.478406 34.245115 1.949212
2004-02-10 08:10:14 51°16.86 2°43.279 7.044468 3.479143 34.247281 2.016631
2004-02-10 08:11:14 51°17.039 2°43.026 7.050212 3.480513 34.257205 2.08405
2004-02-10 08:12:14 51°17.214 2°42.774 7.065724 3.484095 34.290481 2.08405
2004-02-10 08:13:14 51°17.405 2°42.526 7.120527 3.490521 34.327843 2.185178
2004-02-10 08:14:14 51°17.604 2°42.303 7.164551 3.499581 34.377045 2.454853
2004-02-10 08:15:14 51°17.797 2°42.088 7.198358 3.507693 34.421712 2.522272
2004-02-10 08:16:14 51°18.012 2°41.958 7.139209 3.5039 34.399732 2.421144
2004-02-10 08:17:14 51°18.23 2°41.844 7.130678 3.498211 34.378966 2.252597
2004-02-10 08:18:14 51°18.45 2°41.724 7.154798 3.500318 34.381723 2.353725
2004-02-10 08:19:14 51°18.671 2°41.599 7.193459 3.504111 34.399501 2.320016
2004-02-10 08:20:14 51°18.897 2°41.551 7.234056 3.511169 34.422523 2.185178
2004-02-10 08:21:14 51°19.114 2°41.529 7.250257 3.511063 34.401163 2.252597
2004-02-10 08:22:14 51°19.198 2°41.536 7.259311 3.511379 34.389461 2.320016
2004-02-10 08:23:14 51°19.203 2°41.526 7.26029 3.510958 34.380669 2.387435
2004-02-10 08:24:14 51°19.208 2°41.519 7.263128 3.511801 34.389845 2.151469
2004-02-10 08:25:14 51°19.215 2°41.509 7.262541 3.511801 34.387323 2.421144
2004-02-10 08:26:14 51°19.221 2°41.495 7.261709 3.510747 34.379216 2.353725
2004-02-10 08:27:14 51°19.226 2°41.48 7.262051 3.512327 34.398944 2.353725
2004-02-10 08:28:14 51°19.231 2°41.467 7.264596 3.512011 34.388776 2.320016
2004-02-10 08:29:14 51°19.266 2°41.506 7.268119 3.511484 34.377999 2.286306
2004-02-10 08:30:14 51°19.21 2°41.568 7.301284 3.506006 34.294908 2.454853
2004-02-10 08:31:14 51°19.141 2°41.424 7.273892 3.50885 34.335905 2.488563
2004-02-10 08:32:14 51°19.172 2°41.16 7.262051 3.511801 34.385641 2.555982
2004-02-10 08:33:14 51°19.217 2°40.853 7.274577 3.511801 34.38396 2.421144
2004-02-10 08:34:14 51°19.268 2°40.667 7.277806 3.512538 34.381902 2.387435
2004-02-10 08:35:14 51°19.309 2°40.612 7.287394 3.514118 34.390695 2.488563
2004-02-10 08:36:14 51°19.322 2°40.601 7.296491 3.516331 34.407203 2.488563
2004-02-10 08:37:14 51°19.34 2°40.607 7.30099 3.516331 34.403001 2.65711
2004-02-10 08:38:14 51°19.354 2°40.627 7.303631 3.517279 34.406593 2.387435
2004-02-10 08:39:14 51°19.354 2°40.655 7.30099 3.516541 34.401932 2.387435
2004-02-10 08:40:14 51°19.35 2°40.684 7.296931 3.516752 34.402544 2.522272
2004-02-10 08:41:14 51°19.335 2°40.703 7.295806 3.516014 34.400403 2.488563
2004-02-10 08:42:14 51°19.312 2°40.705 7.295513 3.516541 34.402773 2.555982
2004-02-10 08:43:14 51°19.29 2°40.694 7.291991 3.515382 34.396048 2.421144
2004-02-10 08:44:14 51°19.271 2°40.681 7.29385 3.515593 34.396659 2.454853
2004-02-10 08:45:14 51°19.251 2°40.671 7.287932 3.514856 34.392838 2.320016
2004-02-10 08:46:14 51°19.232 2°40.659 7.281915 3.513907 34.390083 2.252597
2004-02-10 08:47:14 51°19.214 2°40.657 7.284899 3.513486 34.386338 2.286306
2004-02-10 08:48:14 51°19.19 2°40.649 7.283578 3.513591 34.384124 2.522272
2004-02-10 08:49:14 51°19.162 2°40.629 7.28485 3.513381 34.382671 2.555982
2004-02-10 08:50:14 51°19.122 2°40.534 7.299474 3.512643 34.367931 2.724529
2004-02-10 08:51:14 51°19.186 2°40.438 7.30544 3.513697 34.376872 3.129042
2004-02-10 08:52:14 51°19.241 2°40.556 7.286953 3.513802 34.379697 2.690819
2004-02-10 08:53:14 51°19.291 2°40.656 7.278735 3.512643 34.379688 2.589691
2004-02-10 08:54:14 51°19.311 2°40.658 7.280301 3.512433 34.377395 2.488563
2004-02-10 08:55:14 51°19.321 2°40.64 7.27536 3.511906 34.375863 2.454853
2004-02-10 08:56:14 51°19.328 2°40.614 7.272278 3.5118 34.376397 2.454853
2004-02-10 08:57:14 51°19.343 2°40.592 7.271495 3.512327 34.38381 2.320016
2004-02-10 08:58:14 51°19.364 2°40.579 7.283432 3.512749 34.379154 2.522272
2004-02-10 08:59:14 51°19.383 2°40.57 7.283872 3.51317 34.382899 2.421144
2004-02-10 09:00:14 51°19.399 2°40.559 7.294975 3.514329 34.388787 2.353725
2004-02-10 09:01:14 51°19.413 2°40.545 7.298203 3.51475 34.386652 2.488563
2004-02-10 09:02:14 51°19.434 2°40.525 7.29473 3.514434 34.385733 2.488563
2004-02-10 09:03:14 51°19.473 2°40.429 7.293214 3.515066 34.392609 2.522272
2004-02-10 09:04:14 51°19.424 2°40.318 7.299865 3.515172 34.390396 2.555982
2004-02-10 09:05:14 51°19.326 2°40.324 7.307054 3.516014 34.392004 2.65711
2004-02-10 09:06:14 51°19.212 2°40.311 7.301528 3.516963 34.395597 3.095332
2004-02-10 09:07:14 51°19.155 2°40.357 7.299817 3.515066 34.39009 2.724529
2004-02-10 09:08:14 51°19.149 2°40.372 7.296246 3.515593 34.394139 3.027913
2004-02-10 09:09:14 51°19.154 2°40.381 7.302751 3.515804 34.397271 3.061623
2004-02-10 09:10:14 51°19.162 2°40.393 7.292089 3.515698 34.399486 3.162751
2004-02-10 09:11:14 51°19.171 2°40.403 7.290328 3.515698 34.400326 2.893076
2004-02-10 09:12:14 51°19.18 2°40.412 7.285241 3.515488 34.401395 2.994204
2004-02-10 09:13:14 51°19.188 2°40.418 7.283334 3.516225 34.413622 2.926785
2004-02-10 09:14:14 51°19.197 2°40.422 7.28441 3.515593 34.407584 2.65711
2004-02-10 09:15:14 51°19.205 2°40.424 7.282942 3.515699 34.410412 2.65711
2004-02-10 09:16:14 51°19.213 2°40.422 7.29204 3.515804 34.403153 2.555982
2004-02-10 09:17:14 51°19.222 2°40.414 7.285437 3.515277 34.400783 2.65711
2004-02-10 09:18:14 51°19.23 2°40.401 7.280007 3.513802 34.388937 2.6234
2004-02-10 09:19:14 51°19.238 2°40.383 7.275849 3.513591 34.389165 2.65711
2004-02-10 09:20:14 51°19.244 2°40.362 7.276191 3.513065 34.390996 2.6234
2004-02-10 09:21:14 51°19.248 2°40.339 7.276583 3.512538 34.382742 2.589691
2004-02-10 09:22:14 51°19.273 2°40.275 7.282942 3.513591 34.392526 2.758238
2004-02-10 09:23:14 51°19.229 2°40.162 7.288812 3.514118 34.393216 3.027913
2004-02-10 09:24:14 51°19.111 2°40.226 7.298545 3.513697 34.379391 3.095332
2004-02-10 09:25:14 51°18.951 2°40.345 7.280496 3.515593 34.39918 3.061623
2004-02-10 09:26:14 51°18.783 2°40.464 7.27218 3.516331 34.421496 2.825657
2004-02-10 09:27:14 51°18.679 2°40.574 7.25246 3.515909 34.432056 2.6234
2004-02-10 09:28:14 51°18.618 2°40.658 7.239538 3.515067 34.432139 2.286306
2004-02-10 09:29:14 51°18.603 2°40.676 7.236405 3.514013 34.43751 2.488563
2004-02-10 09:30:14 51°18.594 2°40.69 7.234496 3.513908 34.432992 2.286306
2004-02-10 09:31:14 51°18.591 2°40.707 7.227446 3.513592 34.437975 2.252597
2004-02-10 09:32:14 51°18.596 2°40.721 7.235475 3.513908 34.439733 2.387435
2004-02-10 09:33:14 51°18.61 2°40.722 7.230629 3.51454 34.440721 2.151469
2004-02-10 09:34:14 51°18.624 2°40.711 7.225145 3.513065 34.436448 2.218888
2004-02-10 09:35:14 51°18.633 2°40.693 7.218731 3.513065 34.441506 2.286306
2004-02-10 09:36:14 51°18.643 2°40.673 7.222893 3.512644 34.436913 2.218888
2004-02-10 09:37:15 51°18.656 2°40.653 7.223823 3.512433 34.434617 2.286306
2004-02-10 09:38:14 51°18.673 2°40.64 7.23058 3.512328 34.43094 2.353725
2004-02-10 09:39:14 51°18.687 2°40.642 7.228719 3.513803 34.440271 2.08405
2004-02-10 09:40:14 51°18.695 2°40.654 7.234349 3.513803 34.438585 2.353725
2004-02-10 09:41:14 51°18.7 2°40.664 7.234937 3.513803 34.436057 2.286306
2004-02-10 09:42:14 51°18.705 2°40.671 7.24037 3.513276 34.43116 2.421144
2004-02-10 09:43:14 51°18.716 2°40.676 7.244042 3.513803 34.43016 2.185178
2004-02-10 09:44:14 51°18.754 2°40.635 7.242867 3.51317 34.421589 2.286306
2004-02-10 09:45:14 51°18.756 2°40.517 7.24179 3.513697 34.42817 2.320016
2004-02-10 09:46:14 51°18.7 2°40.361 7.251334 3.513065 34.41539 2.353725
2004-02-10 09:47:14 51°18.668 2°40.278 7.244237 3.513276 34.421053 2.454853
2004-02-10 09:48:14 51°18.657 2°40.257 7.244629 3.51317 34.418221 2.353725
2004-02-10 09:49:14 51°18.645 2°40.243 7.245461 3.513381 34.423042 2.488563
2004-02-10 09:50:14 51°18.612 2°40.287 7.242182 3.513697 34.42817 2.387435
2004-02-10 09:51:14 51°18.613 2°40.422 7.241888 3.51454 34.436509 2.454853
2004-02-10 09:52:14 51°18.615 2°40.528 7.234692 3.513276 34.42779 2.252597
2004-02-10 09:53:14 51°18.611 2°40.55 7.236748 3.512854 34.424041 2.454853
2004-02-10 09:54:14 51°18.608 2°40.566 7.238902 3.512538 34.418914 2.353725
2004-02-10 09:55:14 51°18.596 2°40.582 7.236895 3.512538 34.420598 2.320016
2004-02-10 09:56:14 51°18.575 2°40.589 7.237531 3.512117 34.411797 2.252597
2004-02-10 09:57:14 51°18.527 2°40.644 7.233419 3.512749 34.423736 2.320016
2004-02-10 09:58:14 51°18.517 2°40.734 7.236112 3.511696 34.414784 2.353725
2004-02-10 09:59:14 51°18.5 2°40.753 7.228524 3.511274 34.410193 2.286306
2004-02-10 10:00:14 51°18.478 2°40.758 7.234496 3.511169 34.410729 2.320016
2004-02-10 10:01:14 51°18.452 2°40.825 7.238902 3.511169 34.409887 2.387435
2004-02-10 10:02:14 51°18.442 2°40.917 7.229503 3.511906 34.413711 2.522272
2004-02-10 10:03:14 51°18.427 2°40.96 7.225635 3.509799 34.398332 2.421144
2004-02-10 10:04:14 51°18.409 2°40.951 7.2202 3.507165 34.376367 2.454853
2004-02-10 10:05:14 51°18.389 2°40.936 7.215646 3.506217 34.36856 2.522272
2004-02-10 10:06:15 51°18.356 2°40.994 7.213247 3.50411 34.351487 2.320016
2004-02-10 10:07:14 51°18.347 2°41.113 7.200415 3.502951 34.341381 2.286306
2004-02-10 10:08:15 51°18.319 2°41.171 7.182584 3.498316 34.308512 2.252597
2004-02-10 10:09:14 51°18.297 2°41.168 7.194733 3.494734 34.279545 2.252597
2004-02-10 10:10:14 51°18.273 2°41.161 7.1939 3.493153 34.252244 2.353725
2004-02-10 10:11:14 51°18.241 2°41.198 7.198603 3.493364 34.247827 2.286306
2004-02-10 10:12:14 51°18.257 2°41.319 7.201395 3.492627 34.238115 2.454853
2004-02-10 10:13:15 51°18.256 2°41.403 7.193313 3.4921 34.239923 2.488563
2004-02-10 10:14:14 51°18.237 2°41.415 7.200758 3.4921 34.236568 2.522272
2004-02-10 10:15:14 51°18.214 2°41.417 7.200268 3.493048 34.242706 2.488563
2004-02-10 10:16:14 51°18.175 2°41.421 7.205215 3.493364 34.243634 2.353725
2004-02-10 10:17:14 51°18.093 2°41.332 7.206292 3.493153 34.210339 2.589691
2004-02-10 10:18:14 51°18.078 2°41.243 7.205362 3.494628 34.256569 2.522272
2004-02-10 10:19:14 51°18.066 2°41.218 7.206831 3.495155 34.261469 2.555982
2004-02-10 10:20:14 51°18.054 2°41.196 7.205411 3.495892 34.266987 2.421144
2004-02-10 10:21:14 51°18.044 2°41.173 7.214422 3.495471 34.265752 2.522272
2004-02-10 10:22:14 51°18.037 2°41.149 7.235818 3.497472 34.258199 2.421144
2004-02-10 10:23:14 51°18.038 2°41.083 7.222403 3.497262 34.257582 2.218888
2004-02-10 10:24:14 51°18.031 2°40.963 7.231755 3.494839 34.2488 2.421144
2004-02-10 10:25:14 51°18.001 2°40.825 7.230825 3.493785 34.218057 2.454853
2004-02-10 10:26:15 51°17.94 2°40.694 7.222403 3.491257 34.198065 2.151469
2004-02-10 10:27:14 51°17.879 2°40.558 7.225782 3.495049 34.232657 2.387435
2004-02-10 10:28:15 51°17.824 2°40.407 7.22867 3.496314 34.248096 2.454853
2004-02-10 10:29:15 51°17.77 2°40.245 7.234545 3.500212 34.280475 2.555982
2004-02-10 10:30:14 51°17.835 2°40.138 7.24409 3.501792 34.29013 2.454853
2004-02-10 10:31:15 51°17.873 2°40.282 7.239587 3.502108 34.294409 2.320016
2004-02-10 10:32:15 51°17.936 2°40.448 7.240321 3.497156 34.248054 2.185178
2004-02-10 10:33:14 51°17.991 2°40.586 7.239342 3.497894 34.253568 2.421144
2004-02-10 10:34:14 51°18.037 2°40.713 7.22823 3.494523 34.226922 2.353725
2004-02-10 10:35:14 51°18.078 2°40.834 7.21971 3.493153 34.21285 2.320016
2004-02-10 10:36:14 51°18.116 2°40.955 7.218731 3.490941 34.197972 2.387435
2004-02-10 10:37:14 51°18.153 2°41.076 7.20639 3.491573 34.211553 2.454853
2004-02-10 10:38:14 51°18.197 2°41.131 7.196692 3.489571 34.194778 2.218888
2004-02-10 10:39:15 51°18.232 2°41.052 7.199729 3.487359 34.182402 2.117759
2004-02-10 10:40:14 51°18.22 2°41.025 7.199142 3.487886 34.18228 2.454853
2004-02-10 10:41:14 51°18.209 2°41.004 7.19052 3.490625 34.212116 2.387435
2004-02-10 10:42:14 51°18.208 2°40.976 7.21021 3.485673 34.171574 2.08405
2004-02-10 10:43:14 51°18.262 2°40.842 7.196497 3.486727 34.162965 2.185178
2004-02-10 10:44:15 51°18.274 2°40.772 7.204284 3.486411 34.163706 1.814375
2004-02-10 10:45:14 51°18.256 2°40.753 7.204774 3.492205 34.223464 2.454853
2004-02-10 10:46:15 51°18.242 2°40.733 7.191157 3.491362 34.218474 2.488563
2004-02-10 10:47:15 51°18.229 2°40.714 7.192333 3.487464 34.18355 1.949212
2004-02-10 10:48:14 51°18.284 2°40.647 7.207713 3.488202 34.179863 2.218888
2004-02-10 10:49:15 51°18.369 2°40.615 7.209819 3.490625 34.20374 2.252597
2004-02-10 10:50:15 51°18.382 2°40.605 7.210063 3.491257 34.208949 2.252597
2004-02-10 10:51:14 51°18.386 2°40.599 7.216674 3.492416 34.206496 2.218888
2004-02-10 10:52:14 51°18.424 2°40.555 7.212708 3.490519 34.200918 2.454853
2004-02-10 10:53:14 51°18.477 2°40.447 7.233223 3.492205 34.202529 2.387435
2004-02-10 10:54:14 51°18.488 2°40.38 7.224852 3.492731 34.203241 2.421144
2004-02-10 10:55:14 51°18.484 2°40.346 7.21212 3.493785 34.23062 2.589691
2004-02-10 10:56:14 51°18.486 2°40.315 7.210798 3.492837 34.223646 2.724529
2004-02-10 10:57:15 51°18.523 2°40.258 7.228034 3.491257 34.201413 2.454853
2004-02-10 10:58:15 51°18.57 2°40.187 7.220445 3.493469 34.222152 2.387435
2004-02-10 10:59:14 51°18.569 2°40.16 7.213442 3.493153 34.222061 2.421144
2004-02-10 11:00:14 51°18.561 2°40.145 7.212512 3.492837 34.223646 2.454853
2004-02-10 11:01:14 51°18.556 2°40.129 7.211092 3.492521 34.221042 2.353725
2004-02-10 11:02:15 51°18.568 2°40.058 7.216968 3.493258 34.216509 2.353725
2004-02-10 11:03:15 51°18.527 2°39.957 7.217066 3.49231 34.216234 2.454853
2004-02-10 11:04:14 51°18.464 2°39.999 7.22069 3.493785 34.226431 2.555982
2004-02-10 11:05:15 51°18.428 2°40.201 7.217115 3.493574 34.222462 2.488563
2004-02-10 11:06:14 51°18.391 2°40.344 7.213834 3.491467 34.205382 2.65711
2004-02-10 11:07:14 51°18.381 2°40.437 7.210112 3.490941 34.202158 2.454853
2004-02-10 11:08:14 51°18.359 2°40.451 7.210749 3.489887 34.19236 2.522272
2004-02-10 11:09:14 51°18.334 2°40.45 7.212365 3.490309 34.192764 2.555982
2004-02-10 11:10:14 51°18.297 2°40.476 7.214128 3.489887 34.189012 2.488563
2004-02-10 11:11:14 51°18.31 2°40.532 7.210014 3.48915 34.180983 2.522272
2004-02-10 11:12:14 51°18.32 2°40.532 7.2131 3.488518 34.171591 2.454853
2004-02-10 11:13:15 51°18.326 2°40.529 7.219857 3.487464 34.167649 2.454853
2004-02-10 11:14:14 51°18.328 2°40.563 7.20977 3.489044 34.180673 2.252597
2004-02-10 11:15:15 51°18.287 2°40.61 7.204284 3.487253 34.165355 2.421144
2004-02-10 11:16:15 51°18.254 2°40.623 7.203648 3.486305 34.155031 2.320016
2004-02-10 11:17:14 51°18.233 2°40.615 7.205999 3.486727 34.160456 2.421144
2004-02-10 11:18:14 51°18.205 2°40.613 7.20879 3.485989 34.14741 2.421144
2004-02-10 11:19:14 51°18.174 2°40.662 7.18714 3.483882 34.131157 2.218888
2004-02-10 11:20:14 51°18.213 2°40.719 7.111405 3.467237 34.009955 2.286306
2004-02-10 11:21:14 51°18.241 2°40.734 7.111258 3.458178 33.942873 1.713247
2004-02-10 11:22:15 51°18.246 2°40.721 7.099534 3.455333 33.916023 2.151469
2004-02-10 11:23:14 51°18.254 2°40.703 7.110326 3.454174 33.905052 2.08405
2004-02-10 11:24:15 51°18.274 2°40.744 7.121508 3.456703 33.922627 1.848084
2004-02-10 11:25:15 51°18.203 2°40.784 7.098455 3.450593 33.863504 1.848084
2004-02-10 11:26:14 51°18.144 2°40.657 7.09924 3.449961 33.862434 1.881794
2004-02-10 11:27:14 51°18.189 2°40.569 7.116162 3.452489 33.891667 2.117759
2004-02-10 11:28:14 51°18.202 2°40.55 7.12092 3.456808 33.922942 2.08405
2004-02-10 11:29:14 51°18.212 2°40.527 7.155778 3.461865 33.962236 2.252597
2004-02-10 11:30:14 51°18.231 2°40.484 7.125676 3.466289 33.992118 2.454853
2004-02-10 11:31:14 51°18.276 2°40.408 7.19826 3.462391 33.946322 2.218888
2004-02-10 11:32:14 51°18.294 2°40.359 7.202619 3.479036 34.081739 2.286306
2004-02-10 11:33:15 51°18.293 2°40.329 7.19875 3.4803 34.096336 2.522272
2004-02-10 11:34:14 51°18.301 2°40.298 7.205852 3.480406 34.102494 2.589691
2004-02-10 11:35:14 51°18.307 2°40.269 7.200709 3.481775 34.109053 2.488563
2004-02-10 11:36:14 51°18.308 2°40.246 7.230776 3.481354 34.101126 2.387435
2004-02-10 11:37:15 51°18.307 2°40.227 7.234007 3.48188 34.078496 1.949212
2004-02-10 11:38:15 51°18.304 2°40.212 7.209182 3.480616 34.084755 1.915503
2004-02-10 11:39:15 51°18.301 2°40.196 7.206831 3.481354 34.101126 2.016631
2004-02-10 11:40:14 51°18.299 2°40.183 7.201052 3.481459 34.108118 2.185178
2004-02-10 11:41:14 51°18.296 2°40.172 7.215107 3.481459 34.098099 1.848084
2004-02-10 11:42:15 51°18.291 2°40.162 7.20208 3.481143 34.100502 1.915503
2004-02-10 11:43:14 51°18.288 2°40.154 7.199631 3.480195 34.09352 2.117759
2004-02-10 11:44:15 51°18.283 2°40.145 7.1939 3.478404 34.079864 1.915503
2004-02-10 11:45:15 51°18.279 2°40.138 7.177243 3.47124 34.018544 1.780665
2004-02-10 11:46:15 51°18.275 2°40.131 7.152985 3.463971 33.956874 1.814375
2004-02-10 11:47:14 51°18.273 2°40.123 7.160043 3.463234 33.957167 1.645828
2004-02-10 11:48:15 51°18.27 2°40.116 7.147642 3.462918 33.94873 1.746956
2004-02-10 11:49:14 51°18.267 2°40.107 7.148867 3.459652 33.920647 1.713247
2004-02-10 11:50:14 51°18.267 2°40.095 7.167688 3.458809 33.914793 1.848084
2004-02-10 11:51:15 51°18.276 2°40.08 7.154945 3.461338 33.931519 2.151469
2004-02-10 11:52:15 51°18.289 2°40.066 7.169403 3.462918 33.94873 2.218888
2004-02-10 11:53:15 51°18.304 2°40.053 7.175969 3.466921 33.983171 2.353725
2004-02-10 11:54:14 51°18.321 2°40.044 7.192774 3.470713 34.007809 2.421144
2004-02-10 11:55:15 51°18.338 2°40.037 7.200562 3.474506 34.036596 2.454853
2004-02-10 11:56:15 51°18.355 2°40.032 7.20257 3.475559 34.044729 2.522272
2004-02-10 11:57:14 51°18.378 2°40.04 7.209133 3.475033 34.037329 2.353725
2004-02-10 11:58:15 51°18.382 2°40.119 7.206488 3.477245 34.054739 2.387435
2004-02-10 11:59:15 51°18.322 2°40.156 7.150632 3.462286 33.926042 2.252597
2004-02-10 12:00:14 51°18.271 2°40.167 7.137641 3.454174 33.862644 2.016631
2004-02-10 12:01:14 51°18.246 2°40.168 7.136709 3.451751 33.845389 2.252597
2004-02-10 12:02:14 51°18.225 2°40.165 7.134993 3.450487 33.83411 2.286306
2004-02-10 12:03:14 51°18.202 2°40.165 7.136513 3.44975 33.825248 2.421144
2004-02-10 12:04:15 51°18.174 2°40.167 7.13161 3.449328 33.818169 2.218888
2004-02-10 12:05:14 51°18.142 2°40.181 7.12955 3.445746 33.785794 2.320016
2004-02-10 12:06:14 51°18.111 2°40.224 7.132247 3.444588 33.774003 2.353725
2004-02-10 12:07:15 51°18.124 2°40.276 7.108413 3.437951 33.709178 2.387435
2004-02-10 12:08:14 51°18.166 2°40.267 7.111797 3.433105 33.675421 2.286306
2004-02-10 12:09:15 51°18.208 2°40.197 7.134405 3.434475 33.676282 2.421144
2004-02-10 12:10:14 51°18.26 2°40.135 7.128864 3.441849 33.745003 2.387435
2004-02-10 12:11:14 51°18.289 2°40.144 7.137395 3.451119 33.843485 2.454853
2004-02-10 12:12:14 51°18.294 2°40.162 7.136954 3.451646 33.839261 2.286306
2004-02-10 12:13:14 51°18.301 2°40.174 7.114397 3.447748 33.815891 2.488563
2004-02-10 12:14:14 51°18.306 2°40.178 7.112631 3.445325 33.798619 2.387435
2004-02-10 12:15:15 51°18.31 2°40.18 7.120086 3.44385 33.783379 2.454853
2004-02-10 12:16:15 51°18.338 2°40.244 7.140043 3.445114 33.786371 2.421144
2004-02-10 12:17:14 51°18.255 2°40.302 7.144847 3.444377 33.751834 2.522272
2004-02-10 12:18:14 51°18.211 2°40.288 7.145239 3.441954 33.737045 2.522272
2004-02-10 12:19:15 51°18.2 2°40.291 7.150779 3.449539 33.809683 2.791947
2004-02-10 12:20:14 51°18.176 2°40.313 7.14117 3.446905 33.784325 2.522272
2004-02-10 12:21:15 51°18.17 2°40.388 7.133081 3.441322 33.726855 2.65711
2004-02-10 12:22:14 51°18.171 2°40.41 7.119056 3.431209 33.639897 2.185178
2004-02-10 12:23:14 51°18.177 2°40.43 7.118124 3.428997 33.618287 2.454853
2004-02-10 12:24:14 51°18.189 2°40.477 7.123666 3.428681 33.610722 2.353725
2004-02-10 12:25:14 51°18.146 2°40.543 7.111405 3.427522 33.604705 2.454853
2004-02-10 12:26:16 51°18.117 2°40.55 7.131659 3.428786 33.615994 2.353725
2004-02-10 12:27:15 51°18.147 2°40.543 7.139111 3.439742 33.713789 2.690819
2004-02-10 12:28:14 51°18.153 2°40.535 7.127344 3.439847 33.71659 2.6234
2004-02-10 12:29:14 51°18.121 2°40.562 7.122979 3.437635 33.706564 2.555982
2004-02-10 12:30:14 51°18.071 2°40.608 7.125333 3.429945 33.631912 2.387435
2004-02-10 12:31:14 51°18.054 2°40.627 7.12705 3.432052 33.644944 2.454853
2004-02-10 12:32:14 51°18.027 2°40.642 7.128766 3.431946 33.635544 2.387435
2004-02-10 12:33:14 51°17.987 2°40.64 7.128128 3.432473 33.643753 2.353725
2004-02-10 12:34:14 51°17.961 2°40.544 7.13313 3.434264 33.664073 2.454853
2004-02-10 12:35:15 51°18.03 2°40.487 7.128275 3.437003 33.691412 2.488563
2004-02-10 12:36:14 51°18.065 2°40.45 7.137542 3.435844 33.665582 2.488563
2004-02-10 12:37:15 51°18.072 2°40.452 7.144749 3.437003 33.683149 2.421144
2004-02-10 12:38:14 51°18.073 2°40.465 7.137592 3.440479 33.716028 2.353725
2004-02-10 12:39:14 51°18.086 2°40.47 7.147887 3.436055 33.678612 2.488563
2004-02-10 12:40:14 51°18.114 2°40.357 7.115476 3.428365 33.609756 2.454853
2004-02-10 12:41:14 51°18.151 2°40.245 7.113073 3.428365 33.617182 2.421144
2004-02-10 12:42:14 51°18.164 2°40.223 7.121018 3.429734 33.619715 2.454853
2004-02-10 12:43:14 51°18.17 2°40.232 7.115966 3.430155 33.630904 2.454853
2004-02-10 12:44:14 51°18.196 2°40.209 7.137297 3.430787 33.625406 2.454853
2004-02-10 12:45:14 51°18.225 2°40.085 7.154602 3.443218 33.739222 2.589691
2004-02-10 12:46:15 51°18.27 2°40.037 7.164944 3.449749 33.806174 2.589691
2004-02-10 12:47:16 51°18.275 2°40.049 7.163914 3.450276 33.809421 2.589691
2004-02-10 12:48:14 51°18.287 2°40.02 7.159798 3.453647 33.843629 2.724529
2004-02-10 12:49:15 51°18.27 2°39.992 7.162542 3.451962 33.825281 2.555982
2004-02-10 12:50:14 51°18.266 2°40.021 7.177341 3.460179 33.901444 3.061623
2004-02-10 12:51:14 51°18.256 2°40.049 7.180477 3.464287 33.942843 2.994204
2004-02-10 12:52:14 51°18.202 2°40.046 7.170873 3.462496 33.921686 2.65711
2004-02-10 12:53:14 51°18.178 2°39.961 7.164208 3.455859 33.862732 2.724529
2004-02-10 12:54:15 51°18.184 2°39.948 7.172784 3.45607 33.867516 2.6234
2004-02-10 12:55:15 51°18.193 2°39.962 7.164698 3.460284 33.908407 2.791947
2004-02-10 12:56:14 51°18.208 2°39.949 7.170726 3.457861 33.857968 2.488563
2004-02-10 12:57:14 51°18.168 2°39.921 7.168276 3.454701 33.852608 2.690819
2004-02-10 12:58:14 51°18.116 2°40.022 7.177243 3.458914 33.885194 2.926785
2004-02-10 12:59:14 51°18.114 2°40.051 7.178272 3.459336 33.897255 2.522272
2004-02-10 13:00:16 51°18.119 2°40.047 7.181016 3.465024 33.943386 2.758238
2004-02-10 13:01:15 51°18.119 2°40.074 7.172784 3.464814 33.949409 2.65711
2004-02-10 13:02:15 51°18.115 2°40.128 7.183123 3.46218 33.924895 2.522272
2004-02-10 13:03:14 51°18.11 2°40.182 7.17102 3.461021 33.913111 2.555982
2004-02-10 13:04:16 51°18.111 2°40.215 7.169305 3.460811 33.912479 2.6234
2004-02-10 13:05:14 51°18.102 2°40.252 7.16661 3.459968 33.904136 2.589691
2004-02-10 13:06:14 51°18.086 2°40.29 7.159307 3.452699 33.83082 2.522272
2004-02-10 13:07:16 51°18.069 2°40.323 7.153573 3.449539 33.803052 2.65711
2004-02-10 13:08:14 51°18.059 2°40.357 7.147838 3.445009 33.757886 2.522272
2004-02-10 13:09:14 51°18.024 2°40.347 7.146073 3.443429 33.744825 2.555982
2004-02-10 13:10:14 51°18.059 2°40.256 7.137003 3.438267 33.700215 2.488563
2004-02-10 13:11:15 51°18.097 2°40.195 7.167884 3.45154 33.819865 2.522272
2004-02-10 13:12:14 51°18.084 2°40.161 7.171902 3.461969 33.920939 2.589691
2004-02-10 13:13:14 51°18.073 2°40.19 7.164208 3.459652 33.90485 2.522272
2004-02-10 13:14:16 51°18.067 2°40.239 7.170481 3.459863 33.906312 2.488563
2004-02-10 13:15:14 51°18.06 2°40.285 7.169011 3.462707 33.934787 2.522272
2004-02-10 13:16:15 51°18.041 2°40.335 7.164208 3.461337 33.924865 2.522272
2004-02-10 13:17:14 51°18.016 2°40.381 7.158915 3.459652 33.907343 2.555982
2004-02-10 13:18:15 51°17.994 2°40.427 7.152347 3.450592 33.814519 2.522272
2004-02-10 13:19:16 51°17.961 2°40.451 7.142053 3.445219 33.763491 2.589691
2004-02-10 13:20:14 51°17.964 2°40.385 7.141808 3.441743 33.733924 2.522272
2004-02-10 13:21:14 51°18.037 2°40.298 7.168031 3.454806 33.864545 2.488563
2004-02-10 13:22:15 51°18.059 2°40.265 7.160925 3.461654 33.929138 2.488563
2004-02-10 13:23:15 51°18.066 2°40.288 7.160974 3.461654 33.933297 2.488563
2004-02-10 13:24:14 51°18.071 2°40.338 7.162836 3.463023 33.944052 2.421144
2004-02-10 13:25:16 51°18.072 2°40.373 7.161121 3.463971 33.956874 2.488563
2004-02-10 13:26:16 51°18.03 2°40.388 7.165679 3.463444 33.946976 2.488563
2004-02-10 13:27:15 51°18.001 2°40.38 7.16166 3.463023 33.944884 2.488563
2004-02-10 13:28:14 51°17.994 2°40.407 7.168031 3.463971 33.950216 2.353725
2004-02-10 13:29:14 51°17.993 2°40.457 7.166659 3.46376 33.94709 2.454853
2004-02-10 13:30:14 51°17.96 2°40.476 7.170677 3.464393 33.954805 2.488563
2004-02-10 13:31:14 51°17.942 2°40.509 7.174744 3.465973 33.964521 2.488563
2004-02-10 13:32:14 51°17.937 2°40.564 7.174891 3.466394 33.969941 2.65711
2004-02-10 13:33:16 51°17.939 2°40.627 7.174597 3.466605 33.972235 2.488563
2004-02-10 13:34:14 51°17.937 2°40.687 7.173274 3.466394 33.969109 2.488563
2004-02-10 13:35:14 51°17.905 2°40.735 7.178762 3.467764 33.982355 2.454853
2004-02-10 13:36:15 51°17.899 2°40.66 7.179448 3.463655 33.945111 2.454853
2004-02-10 13:37:14 51°17.937 2°40.555 7.195223 3.467448 33.972255 2.421144
2004-02-10 13:38:14 51°17.958 2°40.466 7.193508 3.471767 34.010114 2.320016
2004-02-10 13:39:16 51°17.981 2°40.466 7.196056 3.473347 34.025649 2.286306
2004-02-10 13:40:15 51°18 2°40.507 7.203354 3.473452 34.025129 2.387435
2004-02-10 13:41:15 51°18.022 2°40.534 7.219466 3.477455 34.030376 2.353725
2004-02-10 13:42:15 51°18.009 2°40.486 7.204921 3.4744 34.030449 2.353725
2004-02-10 13:43:16 51°17.956 2°40.366 7.205754 3.47872 34.073293 2.522272
2004-02-10 13:44:15 51°17.943 2°40.291 7.200905 3.481248 34.102484 2.421144
2004-02-10 13:45:14 51°17.94 2°40.266 7.200072 3.482302 34.114788 2.320016
2004-02-10 13:46:15 51°17.949 2°40.293 7.198995 3.481775 34.114065 2.421144
2004-02-10 13:47:15 51°17.963 2°40.342 7.202374 3.482196 34.116147 2.454853
2004-02-10 13:48:15 51°17.984 2°40.383 7.201982 3.48188 34.112706 2.454853
2004-02-10 13:49:15 51°17.98 2°40.335 7.203158 3.482407 34.120112 2.421144
2004-02-10 13:50:14 51°18.003 2°40.189 7.200611 3.482723 34.122718 2.454853
2004-02-10 13:51:15 51°18.027 2°40.072 7.199288 3.483039 34.126995 2.320016
2004-02-10 13:52:14 51°18.052 2°40.081 7.199974 3.483039 34.124488 2.218888
2004-02-10 13:53:15 51°18.072 2°40.117 7.210994 3.48325 34.128453 2.387435
2004-02-10 13:54:15 51°18.089 2°40.14 7.230041 3.485884 34.133731 2.421144
2004-02-10 13:55:15 51°18.076 2°40.065 7.201248 3.484725 34.134484 2.387435
2004-02-10 13:56:14 51°18.104 2°39.923 7.201835 3.483882 34.1345 2.589691
2004-02-10 13:57:16 51°18.133 2°39.858 7.203795 3.484514 34.140547 2.320016
2004-02-10 13:58:16 51°18.149 2°39.875 7.201884 3.485252 34.149413 2.454853
2004-02-10 13:59:15 51°18.162 2°39.911 7.205019 3.485252 34.149413 2.387435
2004-02-10 14:00:14 51°18.144 2°39.942 7.211875 3.487253 34.156157 2.320016
2004-02-10 14:01:16 51°18.097 2°39.908 7.202913 3.486727 34.15962 2.387435
2004-02-10 14:02:16 51°18.059 2°39.811 7.211092 3.489676 34.190903 2.488563
2004-02-10 14:03:14 51°18.027 2°39.81 7.210945 3.491889 34.210808 2.286306
2004-02-10 14:04:14 51°18.029 2°39.868 7.213834 3.493785 34.228944 2.286306
2004-02-10 14:05:15 51°18.036 2°39.939 7.213345 3.494417 34.235828 2.320016
2004-02-10 14:06:14 51°18.023 2°39.993 7.212904 3.49368 34.228635 2.286306
2004-02-10 14:07:14 51°17.999 2°39.916 7.215499 3.493891 34.230092 2.218888
2004-02-10 14:08:14 51°17.985 2°39.877 7.231167 3.497051 34.260317 2.387435
2004-02-10 14:09:14 51°17.973 2°39.916 7.22632 3.499053 34.273728 2.218888
2004-02-10 14:10:16 51°17.975 2°39.981 7.234545 3.499685 34.278933 2.185178
2004-02-10 14:11:15 51°17.964 2°40.024 7.229062 3.499474 34.276639 2.151469
2004-02-10 14:12:16 51°17.963 2°40.038 7.230629 3.499896 34.282066 2.286306
2004-02-10 14:13:15 51°17.972 2°40.076 7.228034 3.49979 34.280919 2.252597
2004-02-10 14:14:14 51°17.986 2°40.132 7.228524 3.499896 34.283743 2.286306
2004-02-10 14:15:14 51°17.968 2°40.155 7.234839 3.500738 34.289565 2.286306
2004-02-10 14:16:14 51°17.922 2°40.12 7.235769 3.501476 34.294238 2.320016
2004-02-10 14:17:14 51°17.902 2°40.126 7.236307 3.50274 34.304646 2.252597
2004-02-10 14:18:14 51°17.901 2°40.164 7.235279 3.502319 34.29838 2.353725
2004-02-10 14:19:15 51°17.91 2°40.235 7.235475 3.502529 34.301513 2.286306
2004-02-10 14:20:16 51°17.88 2°40.256 7.241056 3.502635 34.301821 2.320016
2004-02-10 14:21:14 51°17.871 2°40.202 7.249328 3.504742 34.318045 2.320016
2004-02-10 14:22:15 51°17.873 2°40.236 7.251236 3.505795 34.317764 2.353725
2004-02-10 14:23:15 51°17.879 2°40.3 7.258479 3.506743 34.32976 2.454853
2004-02-10 14:24:16 51°17.849 2°40.339 7.254075 3.506849 34.329229 2.454853
2004-02-10 14:25:14 51°17.816 2°40.331 7.25799 3.507797 34.339547 2.522272
2004-02-10 14:26:14 51°17.819 2°40.371 7.264449 3.50885 34.345975 2.555982
2004-02-10 14:27:16 51°17.83 2°40.436 7.265672 3.508324 34.338565 2.421144
2004-02-10 14:28:15 51°17.83 2°40.4 7.266504 3.508745 34.34399 2.555982
2004-02-10 14:29:16 51°17.803 2°40.234 7.286856 3.510747 34.358214 2.6234
2004-02-10 14:30:15 51°17.787 2°40.097 7.300795 3.514539 34.375125 2.994204
2004-02-10 14:31:14 51°17.779 2°40.121 7.309254 3.515909 34.373234 2.555982
2004-02-10 14:32:15 51°17.781 2°40.179 7.307347 3.516225 34.382542 2.555982
2004-02-10 14:33:14 51°17.787 2°40.249 7.30901 3.516225 34.380864 2.522272
2004-02-10 14:34:15 51°17.798 2°40.321 7.305245 3.516541 34.382622 2.522272
2004-02-10 14:35:15 51°17.803 2°40.395 7.306272 3.51633 34.384527 2.522272
2004-02-10 14:36:16 51°17.777 2°40.454 7.303191 3.51633 34.384527 2.488563
2004-02-10 14:37:16 51°17.772 2°40.357 7.304511 3.516225 34.3859 2.893076
2004-02-10 14:38:14 51°17.793 2°40.18 7.316588 3.516646 34.386285 2.724529
2004-02-10 14:39:15 51°17.874 2°40.085 7.343522 3.518227 34.390875 2.6234
2004-02-10 14:40:14 51°17.9 2°39.981 7.328517 3.519491 34.386998 2.488563
2004-02-10 14:41:14 51°17.899 2°39.93 7.340492 3.519701 34.392641 2.421144
2004-02-10 14:42:14 51°17.886 2°39.941 7.334676 3.52065 34.402943 2.555982
2004-02-10 14:43:15 51°17.892 2°39.981 7.334431 3.521282 34.408971 2.522272
2004-02-10 14:44:16 51°17.903 2°40.027 7.335702 3.520755 34.404087 2.488563
2004-02-10 14:45:16 51°17.894 2°39.951 7.337266 3.521492 34.405388 2.6234
2004-02-10 14:46:15 51°17.963 2°39.797 7.342251 3.521492 34.402871 2.690819
2004-02-10 14:47:14 51°18.009 2°39.728 7.351634 3.52381 34.420497 2.589691
2004-02-10 14:48:15 51°17.989 2°39.704 7.351047 3.524442 34.431559 2.6234
2004-02-10 14:49:15 51°17.99 2°39.752 7.350412 3.524653 34.43049 2.791947
2004-02-10 14:50:15 51°17.999 2°39.82 7.348653 3.524232 34.428431 2.859366
2004-02-10 14:51:16 51°17.986 2°39.893 7.348849 3.523283 34.417292 2.724529
2004-02-10 14:52:14 51°17.964 2°39.861 7.350363 3.523916 34.423319 3.027913
2004-02-10 14:53:16 51°18.082 2°39.861 7.350852 3.524337 34.428736 3.297589
2004-02-10 14:54:15 51°18.308 2°39.922 7.350754 3.512853 34.30069 3.297589
2004-02-10 14:55:15 51°18.543 2°40.068 7.342544 3.505478 34.222317 3.162751
2004-02-10 14:56:16 51°18.778 2°40.228 7.334725 3.482511 33.985638 3.398717
2004-02-10 14:57:15 51°19.003 2°40.385 7.326268 3.508323 34.272401 3.668392
2004-02-10 14:58:15 51°19.237 2°40.542 7.318251 3.50295 34.222405 3.23017
2004-02-10 14:59:15 51°19.473 2°40.693 7.31165 3.466603 33.833809 3.23017
2004-02-10 15:00:15 51°19.709 2°40.855 7.309548 3.479245 33.977561 2.926785
2004-02-10 15:01:15 51°19.942 2°41.004 7.308423 3.497366 34.175949 2.724529
2004-02-10 15:02:15 51°20.178 2°41.162 7.31654 3.483354 34.017171 2.488563
2004-02-10 15:03:15 51°20.415 2°41.312 7.318544 3.471449 33.890496 2.286306
2004-02-10 15:04:15 51°20.499 2°41.517 7.320548 3.479351 33.964615 2.387435
2004-02-10 15:05:15 51°20.451 2°41.632 7.322211 3.487463 34.050133 2.252597
2004-02-10 15:06:15 51°20.418 2°41.646 7.322602 3.497577 34.163231 2.421144
2004-02-10 15:07:15 51°20.412 2°41.61 7.317175 3.495996 34.15024 2.421144
2004-02-10 15:08:15 51°20.403 2°41.55 7.31297 3.498314 34.178741 2.522272
2004-02-10 15:09:16 51°20.413 2°41.563 7.312433 3.493152 34.125186 2.65711
2004-02-10 15:10:15 51°20.432 2°41.596 7.313264 3.501159 34.210467 2.555982
2004-02-10 15:11:15 51°20.457 2°41.636 7.318397 3.500421 34.202458 2.65711
2004-02-10 15:12:15 51°20.48 2°41.663 7.318544 3.500948 34.197332 2.791947
2004-02-10 15:13:15 51°20.499 2°41.666 7.331205 3.492309 34.110209 2.65711
2004-02-10 15:14:15 51°20.508 2°41.672 7.323775 3.501475 34.199715 2.65711
2004-02-10 15:15:15 51°20.513 2°41.694 7.322748 3.502528 34.209484 2.690819
2004-02-10 15:16:15 51°20.516 2°41.714 7.319815 3.500843 34.200359 2.724529
2004-02-10 15:17:15 51°20.521 2°41.718 7.32006 3.503371 34.227817 2.488563
2004-02-10 15:18:15 51°20.526 2°41.703 7.320793 3.502318 34.216376 2.589691
2004-02-10 15:19:15 51°20.528 2°41.704 7.320646 3.502845 34.223766 2.690819
2004-02-10 15:20:15 51°20.528 2°41.726 7.320157 3.495364 34.140878 2.589691
2004-02-10 15:21:15 51°20.525 2°41.761 7.330668 3.504319 34.235609 2.825657
2004-02-10 15:22:15 51°20.524 2°41.807 7.323042 3.505478 34.244018 2.926785
2004-02-10 15:23:16 51°20.521 2°41.864 7.321135 3.504952 34.243309 3.129042
2004-02-10 15:24:16 51°20.515 2°41.92 7.320304 3.503582 34.2276 2.926785
2004-02-10 15:25:16 51°20.487 2°41.949 7.319864 3.505584 34.251845 3.095332
2004-02-10 15:26:16 51°20.477 2°41.801 7.316686 3.505689 34.258003 3.061623
2004-02-10 15:27:15 51°20.471 2°41.634 7.318642 3.506427 34.262671 3.061623
2004-02-10 15:28:15 51°20.447 2°41.583 7.32006 3.508112 34.279309 2.859366
2004-02-10 15:29:15 51°20.448 2°41.597 7.321722 3.509061 34.290445 2.926785
2004-02-10 15:30:15 51°20.456 2°41.625 7.328468 3.509693 34.291456 3.027913
2004-02-10 15:31:16 51°20.409 2°41.575 7.327148 3.511062 34.294622 2.926785
2004-02-10 15:32:15 51°20.287 2°41.416 7.327197 3.510114 34.29687 3.19646
2004-02-10 15:33:15 51°20.148 2°41.318 7.33057 3.514539 34.335725 2.893076
2004-02-10 15:34:15 51°20.088 2°41.265 7.332818 3.516119 34.355404 2.893076
2004-02-10 15:35:15 51°20.065 2°41.25 7.33839 3.518121 34.371282 2.6234
2004-02-10 15:36:15 51°20.067 2°41.275 7.341274 3.518542 34.375859 2.522272
2004-02-10 15:37:15 51°20.066 2°41.307 7.340003 3.518858 34.37594 2.6234
2004-02-10 15:38:15 51°20.066 2°41.311 7.344499 3.519175 34.379373 2.589691
2004-02-10 15:39:16 51°20.071 2°41.3 7.338879 3.519069 34.378228 2.791947
2004-02-10 15:40:15 51°20.083 2°41.297 7.35437 3.518964 34.377922 2.791947
2004-02-10 15:41:16 51°20.094 2°41.271 7.35867 3.520333 34.38274 2.893076
2004-02-10 15:42:15 51°20.09 2°41.242 7.344939 3.521176 34.394407 2.825657
2004-02-10 15:43:16 51°20.094 2°41.234 7.345428 3.52086 34.394328 2.65711
2004-02-10 15:44:15 51°20.103 2°41.237 7.354615 3.520333 34.388607 2.859366
2004-02-10 15:45:15 51°20.107 2°41.243 7.354517 3.521492 34.391972 2.926785
2004-02-10 15:46:15 51°20.108 2°41.253 7.346943 3.521492 34.397002 2.926785
2004-02-10 15:47:15 51°20.104 2°41.274 7.347334 3.520966 34.392957 2.926785
2004-02-10 15:48:15 51°20.101 2°41.308 7.352611 3.522335 34.402801 2.65711
2004-02-10 15:49:15 51°20.092 2°41.305 7.352855 3.521914 34.40074 2.791947
2004-02-10 15:50:16 51°20.08 2°41.3 7.346601 3.521914 34.399901 2.825657
2004-02-10 15:51:15 51°20.073 2°41.311 7.34704 3.521492 34.399517 2.994204
2004-02-10 15:52:15 51°20.062 2°41.318 7.351732 3.522546 34.403412 2.758238
2004-02-10 15:53:16 51°19.98 2°41.204 7.353882 3.523283 34.41226 2.859366
2004-02-10 15:54:15 51°19.862 2°41.069 7.35652 3.525601 34.42988 3.027913
2004-02-10 15:55:15 51°19.755 2°40.995 7.360771 3.525496 34.427058 2.893076
2004-02-10 15:56:15 51°19.71 2°40.92 7.360331 3.526233 34.437583 3.263879
2004-02-10 15:57:15 51°19.698 2°40.886 7.362921 3.527287 34.446506 3.19646
2004-02-10 15:58:15 51°19.701 2°40.902 7.367708 3.527708 34.449404 2.893076
2004-02-10 15:59:15 51°19.704 2°40.94 7.367953 3.528024 34.449478 3.095332
2004-02-10 16:00:15 51°19.695 2°40.967 7.367757 3.528024 34.449478 3.095332
2004-02-10 16:01:16 51°19.685 2°40.956 7.372007 3.528867 34.456112 3.19646
2004-02-10 16:02:15 51°19.679 2°40.964 7.375084 3.529815 34.46137 2.825657
2004-02-10 16:03:16 51°19.661 2°40.965 7.375964 3.530342 34.46541 2.825657
2004-02-10 16:04:15 51°19.674 2°40.879 7.37611 3.530764 34.469985 2.926785
2004-02-10 16:05:16 51°19.682 2°40.847 7.385097 3.532133 34.475619 2.859366
2004-02-10 16:06:16 51°19.685 2°40.865 7.388028 3.532871 34.483623 2.6234
2004-02-10 16:07:15 51°19.693 2°40.902 7.388272 3.533081 34.481713 2.690819
2004-02-10 16:08:15 51°19.693 2°40.928 7.391006 3.533292 34.486518 2.825657
2004-02-10 16:09:16 51°19.692 2°40.94 7.384951 3.53266 34.483015 2.893076
2004-02-10 16:10:15 51°19.697 2°40.941 7.382118 3.531817 34.475546 2.724529
2004-02-10 16:11:16 51°19.719 2°40.945 7.385781 3.532028 34.478672 2.960494
2004-02-10 16:12:15 51°19.739 2°40.956 7.385732 3.53266 34.483015 2.825657
2004-02-10 16:13:16 51°19.75 2°40.964 7.38749 3.532976 34.483927 3.129042
2004-02-10 16:14:16 51°19.689 2°40.947 7.396085 3.533819 34.485519 3.095332
2004-02-10 16:15:15 51°19.588 2°41.164 7.401603 3.533714 34.488573 3.095332
2004-02-10 16:16:15 51°19.476 2°41.498 7.426548 3.539087 34.522525 2.859366
2004-02-10 16:17:16 51°19.354 2°41.832 7.427134 3.541615 34.531477 3.162751
2004-02-10 16:18:16 51°19.239 2°42.167 7.422253 3.540772 34.526535 3.23017
2004-02-10 16:19:15 51°19.122 2°42.495 7.39379 3.537401 34.504239 3.365007
2004-02-10 16:20:15 51°18.999 2°42.827 7.378553 3.532028 34.475314 3.80323
2004-02-10 16:21:15 51°18.883 2°43.165 7.348995 3.526971 34.443074 3.432426
2004-02-10 16:22:15 51°18.772 2°43.509 7.314095 3.522441 34.41401 3.162751
2004-02-10 16:23:15 51°18.663 2°43.85 7.254417 3.513065 34.375034 2.994204
2004-02-10 16:24:15 51°18.561 2°44.198 7.235769 3.508113 34.352224 2.825657
2004-02-10 16:25:15 51°18.46 2°44.549 7.231804 3.509378 34.377755 2.926785
2004-02-10 16:26:15 51°18.352 2°44.894 7.223187 3.511169 34.399785 2.758238
2004-02-10 16:27:15 51°18.25 2°45.236 7.236161 3.511379 34.40208 3.331298
2004-02-10 16:28:15 51°18.155 2°45.588 7.190226 3.50274 34.315558 3.76952
2004-02-10 16:29:15 51°18.059 2°45.94 7.149602 3.484725 34.172965 3.567264
2004-02-10 16:30:15 51°17.964 2°46.291 7.141514 3.477562 34.119154 3.432426
2004-02-10 16:31:15 51°17.858 2°46.633 7.130286 3.48009 34.15091 3.19646
2004-02-10 16:32:15 51°17.769 2°46.987 7.123323 3.483251 34.196285 3.129042
2004-02-10 16:33:15 51°17.674 2°47.331 7.126657 3.490309 34.276673 3.162751
2004-02-10 16:34:15 51°17.581 2°47.667 7.1422 3.494945 34.320537 3.365007
2004-02-10 16:35:15 51°17.482 2°48.001 7.153622 3.501898 34.376201 3.129042
2004-02-10 16:36:15 51°17.381 2°48.35 7.1422 3.501161 34.368996 3.263879
2004-02-10 16:37:15 51°17.289 2°48.701 7.115525 3.496947 34.342387 3.735811
2004-02-10 16:38:15 51°17.173 2°49.029 7.074019 3.489362 34.294944 3.870648
2004-02-10 16:39:15 51°17.034 2°49.323 7.063614 3.483462 34.255751 3.263879
2004-02-10 16:40:15 51°16.882 2°49.599 7.273941 3.483357 34.244497 -0.208189
2004-02-10 16:41:15 51°16.731 2°49.874 7.461192 1.194213 9.230442 -0.14077
2004-02-10 16:42:15 51°16.575 2°50.148 7.597779 0.688251 4.97897 -0.882377
2004-02-10 16:43:15 51°16.418 2°50.413 7.811212 0.611072 4.387313 -0.916087
2004-02-10 16:44:15 51°16.263 2°50.682 8.002368 0.583718 4.192996 -0.848668
2004-02-10 16:45:15 51°16.126 2°50.982 8.17622 0.56973 4.094261 -0.882377
2004-02-10 16:46:15 51°15.989 2°51.292 8.364949 0.562423 4.037931 -0.882377
2004-02-10 16:47:15 51°15.859 2°51.613 8.508413 0.557413 3.999595 -0.882377
2004-02-10 16:48:15 51°15.73 2°51.928 8.702011 0.554281 3.980949 -0.882377
2004-02-10 16:49:15 51°15.601 2°52.239 8.867928 0.551359 3.955306 -0.882377
2004-02-10 16:50:15 51°15.464 2°52.543 9.056933 0.548958 3.942539 -0.848668
2004-02-10 16:51:15 51°15.355 2°52.771 9.216153 0.546662 3.92549 -0.882377
2004-02-10 16:52:15 51°15.228 2°53.047 9.434858 0.544992 3.912845 -0.882377
2004-02-10 16:53:15 51°15.086 2°53.335 9.515898 0.543948 3.904683 -0.882377
2004-02-10 16:54:15 51°14.958 2°53.646 9.630004 0.542592 3.895794 -0.882377
2004-02-10 16:55:15 51°14.824 2°53.957 9.874632 0.541652 3.889705 -0.882377
2004-02-10 16:56:16 51°14.68 2°54.263 9.986142 0.540713 3.883058 -0.882377
2004-02-10 16:57:15 51°14.543 2°54.564 10.201438 0.539878 3.877923 -0.882377
2004-02-10 16:58:15 51°14.426 2°54.898 10.171601 0.538939 3.872778 -0.882377